Time;durP1;ratioP1;P1;durP2;ratioP2;P2;SDS_P1;SDS_P2;PMS_P1;PMS_P2;Temp;Humidity;BMP_temperature;BMP_pressure;BME280_temperature;BME280_humidity;BME280_pressure;Samples;Min_cycle;Max_cycle;Signal;HPM_P1;HPM_P2
2023/07/04 00:01:56;;;;;;;9.90;4.40;;;16.30;99.90;;;;;;5099777;28;20891;-59
2023/07/04 00:04:24;;;;;;;6.93;3.60;;;16.20;99.90;;;;;;5099893;28;20912;-59
2023/07/04 00:06:51;;;;;;;7.10;3.70;;;16.20;99.90;;;;;;5100193;28;20506;-61
2023/07/04 00:09:19;;;;;;;8.77;4.40;;;16.20;99.90;;;;;;5099994;28;20464;-61
2023/07/04 00:11:46;;;;;;;8.57;3.97;;;16.20;99.90;;;;;;5100362;28;20946;-58
2023/07/04 00:14:13;;;;;;;8.27;4.03;;;16.10;99.90;;;;;;5099776;28;20492;-59
2023/07/04 00:16:40;;;;;;;9.60;5.80;;;16.10;99.90;;;;;;5099816;28;20586;-59
2023/07/04 00:19:10;;;;;;;10.10;4.07;;;16.10;99.90;;;;;;5099822;28;20487;-59
2023/07/04 00:21:38;;;;;;;4.80;3.80;;;16.00;99.90;;;;;;5099885;28;20460;-60
2023/07/04 00:24:06;;;;;;;12.10;4.50;;;16.00;99.90;;;;;;5099760;28;20492;-60
2023/07/04 00:26:35;;;;;;;9.93;4.97;;;15.90;99.90;;;;;;5099983;28;20457;-60
2023/07/04 00:29:02;;;;;;;9.37;3.73;;;15.90;99.90;;;;;;5099753;28;20460;-60
2023/07/04 00:31:29;;;;;;;6.00;4.10;;;15.90;99.90;;;;;;5099343;28;20456;-60
2023/07/04 00:33:56;;;;;;;10.63;4.63;;;15.90;99.90;;;;;;5099667;28;20720;-59
2023/07/04 00:36:25;;;;;;;6.13;3.37;;;15.80;99.90;;;;;;5098100;28;20467;-59
2023/07/04 00:38:56;;;;;;;12.50;4.30;;;15.80;99.90;;;;;;5099176;28;20520;-60
2023/07/04 00:41:25;;;;;;;6.83;4.20;;;15.70;99.90;;;;;;5099234;28;20450;-60
2023/07/04 00:43:59;;;;;;;13.17;5.07;;;15.70;99.90;;;;;;5099518;28;20468;-60
2023/07/04 00:46:37;;;;;;;9.23;4.10;;;15.70;99.90;;;;;;5098704;28;20460;-59
2023/07/04 00:49:18;;;;;;;9.70;4.57;;;15.60;99.90;;;;;;5099300;28;20456;-60
2023/07/04 00:51:50;;;;;;;11.90;4.70;;;15.60;99.90;;;;;;5099325;28;20942;-61
2023/07/04 00:54:20;;;;;;;9.03;4.47;;;15.60;99.90;;;;;;5099033;28;20490;-58
2023/07/04 00:56:47;;;;;;;10.30;4.13;;;15.60;99.90;;;;;;5098896;28;20492;-59
2023/07/04 00:59:15;;;;;;;11.20;4.13;;;15.60;99.90;;;;;;5099172;28;20575;-60
2023/07/04 01:01:42;;;;;;;15.50;4.67;;;15.50;99.90;;;;;;5099228;28;20464;-61
2023/07/04 01:04:09;;;;;;;9.53;5.03;;;15.40;99.90;;;;;;5098991;28;20452;-58
2023/07/04 01:06:42;;;;;;;7.00;4.07;;;15.40;99.90;;;;;;5098759;28;20461;-58
2023/07/04 01:09:13;;;;;;;9.17;4.77;;;15.40;99.90;;;;;;5098817;28;20461;-58
2023/07/04 01:11:44;;;;;;;6.07;3.30;;;15.30;99.90;;;;;;5098198;28;20552;-60
2023/07/04 01:14:19;;;;;;;8.33;4.17;;;15.30;99.90;;;;;;5097603;28;20464;-59
2023/07/04 01:16:47;;;;;;;7.47;4.00;;;15.30;1.00;;;;;;5098877;28;20514;-59
2023/07/04 01:19:22;;;;;;;7.60;4.40;;;15.30;99.90;;;;;;5098707;28;20745;-59
2023/07/04 01:21:52;;;;;;;13.97;4.57;;;15.30;99.90;;;;;;5099005;28;20486;-59
2023/07/04 01:24:29;;;;;;;9.40;4.60;;;15.30;99.90;;;;;;5098628;28;20939;-60
2023/07/04 01:26:59;;;;;;;9.67;4.10;;;15.20;99.90;;;;;;5098830;28;20456;-61
2023/07/04 01:29:26;;;;;;;7.43;4.27;;;15.30;99.90;;;;;;5098560;28;20931;-61
2023/07/04 01:31:53;;;;;;;9.50;4.50;;;15.20;99.90;;;;;;5098204;28;20494;-60
2023/07/04 01:34:21;;;;;;;10.60;4.83;;;15.20;99.90;;;;;;5098216;28;20755;-58
2023/07/04 01:36:49;;;;;;;10.67;4.83;;;15.10;99.90;;;;;;5098189;28;20493;-60
2023/07/04 01:39:16;;;;;;;10.37;4.37;;;15.10;99.90;;;;;;5098046;28;20470;-59
2023/07/04 01:41:45;;;;;;;8.20;4.10;;;15.10;99.90;;;;;;5098304;28;20456;-61
2023/07/04 01:44:15;;;;;;;10.43;4.20;;;15.00;99.90;;;;;;5097834;28;20480;-60
2023/07/04 01:46:43;;;;;;;16.43;4.73;;;15.00;99.90;;;;;;5098297;28;20856;-62
2023/07/04 01:49:10;;;;;;;10.20;4.53;;;15.00;99.90;;;;;;5098041;28;20463;-61
2023/07/04 01:51:40;;;;;;;12.13;4.63;;;15.00;99.90;;;;;;5098486;28;20460;-60
2023/07/04 01:54:08;;;;;;;11.13;5.10;;;14.90;99.90;;;;;;5097820;28;20461;-60
2023/07/04 01:56:38;;;;;;;8.17;4.03;;;14.90;1.00;;;;;;5097810;28;20488;-61
2023/07/04 01:59:07;;;;;;;12.53;5.00;;;14.80;99.90;;;;;;5097875;28;20472;-60
2023/07/04 02:01:36;;;;;;;11.80;4.93;;;14.80;99.90;;;;;;5097954;28;20468;-63
2023/07/04 02:04:03;;;;;;;8.90;4.53;;;14.80;99.90;;;;;;5098075;28;20472;-61
2023/07/04 02:06:30;;;;;;;10.33;5.33;;;14.80;99.90;;;;;;5097644;28;20452;-60
2023/07/04 02:08:57;;;;;;;14.27;5.43;;;14.70;99.90;;;;;;5097137;28;20547;-60
2023/07/04 02:11:24;;;;;;;7.87;4.40;;;14.70;99.90;;;;;;5097843;28;20466;-60
2023/07/04 02:13:52;;;;;;;10.63;5.60;;;14.70;1.00;;;;;;5098109;28;20460;-60
2023/07/04 02:16:19;;;;;;;15.70;5.30;;;14.70;1.00;;;;;;5097442;28;20492;-60
2023/07/04 02:18:47;;;;;;;9.30;4.60;;;14.60;1.00;;;;;;5097552;28;20563;-60
2023/07/04 02:21:15;;;;;;;13.80;4.77;;;14.70;1.00;;;;;;5097957;28;20468;-59
2023/07/04 02:23:43;;;;;;;12.90;4.57;;;14.60;1.00;;;;;;5097469;28;20507;-60
2023/07/04 02:26:11;;;;;;;12.37;4.70;;;14.60;1.00;;;;;;5097362;28;20460;-61
2023/07/04 02:28:39;;;;;;;7.90;4.43;;;14.60;1.00;;;;;;5097418;28;20766;-58
2023/07/04 02:31:07;;;;;;;10.07;4.77;;;14.50;1.00;;;;;;5096939;28;20890;-59
2023/07/04 02:33:35;;;;;;;11.90;4.73;;;14.50;1.00;;;;;;5097668;28;20460;-62
2023/07/04 02:36:04;;;;;;;10.27;4.80;;;14.50;1.00;;;;;;5097005;28;20492;-60
2023/07/04 02:38:31;;;;;;;11.10;5.43;;;14.40;1.00;;;;;;5096824;28;20464;-61
2023/07/04 02:40:58;;;;;;;12.30;4.50;;;14.40;1.00;;;;;;5097667;28;20460;-61
2023/07/04 02:43:25;;;;;;;10.83;4.80;;;14.40;1.00;;;;;;5097336;28;20460;-60
2023/07/04 02:45:52;;;;;;;8.10;4.40;;;14.40;1.00;;;;;;5097681;28;20460;-62
2023/07/04 02:48:20;;;;;;;10.90;4.53;;;14.40;1.00;;;;;;5097378;28;20461;-61
2023/07/04 02:50:47;;;;;;;9.63;4.67;;;14.30;1.00;;;;;;5097323;28;20460;-60
2023/07/04 02:53:20;;;;;;;13.57;4.93;;;14.30;1.00;;;;;;5097574;28;20464;-60
2023/07/04 02:55:47;;;;;;;10.70;4.90;;;14.30;1.00;;;;;;5097516;28;20952;-61
2023/07/04 02:58:15;;;;;;;12.70;5.47;;;14.20;36.10;;;;;;5096711;28;20460;-60
2023/07/04 03:00:42;;;;;;;7.97;4.70;;;14.20;1.00;;;;;;5097074;28;20468;-61
2023/07/04 03:03:10;;;;;;;13.70;4.97;;;14.20;99.90;;;;;;5095212;28;20481;-61
2023/07/04 03:05:37;;;;;;;8.50;4.70;;;14.20;99.90;;;;;;5097271;28;20431;-59
2023/07/04 03:08:05;;;;;;;11.80;4.77;;;14.20;99.90;;;;;;5096090;28;20490;-60
2023/07/04 03:10:34;;;;;;;8.87;4.60;;;14.20;1.00;;;;;;5097190;28;20464;-60
2023/07/04 03:13:01;;;;;;;10.23;4.67;;;14.20;1.00;;;;;;5096837;28;20467;-60
2023/07/04 03:15:29;;;;;;;14.30;4.83;;;14.20;1.00;;;;;;5096916;28;20468;-60
2023/07/04 03:17:56;;;;;;;9.93;4.70;;;14.30;1.00;;;;;;5096108;28;20461;-60
2023/07/04 03:20:23;;;;;;;13.37;5.43;;;14.40;1.00;;;;;;5095879;28;20460;-60
2023/07/04 03:22:50;;;;;;;17.47;5.23;;;14.40;99.90;;;;;;5096705;28;20467;-60
2023/07/04 03:25:17;;;;;;;10.83;5.10;;;14.40;99.90;;;;;;5096474;28;20456;-60
2023/07/04 03:27:46;;;;;;;15.10;5.53;;;14.40;99.90;;;;;;5096809;28;20456;-61
2023/07/04 03:30:13;;;;;;;16.50;6.13;;;14.40;99.90;;;;;;5096578;28;20464;-60
2023/07/04 03:32:40;;;;;;;12.73;5.93;;;14.40;99.90;;;;;;5096637;28;20897;-60
2023/07/04 03:35:08;;;;;;;14.60;6.07;;;14.30;99.90;;;;;;5096959;28;20482;-60
2023/07/04 03:37:37;;;;;;;13.60;5.30;;;14.30;99.90;;;;;;5098277;28;20606;-60
2023/07/04 03:40:07;;;;;;;12.10;5.13;;;14.40;99.90;;;;;;5099998;28;20762;-59
2023/07/04 03:42:35;;;;;;;13.40;5.10;;;14.40;99.90;;;;;;5100763;28;20463;-59
2023/07/04 03:45:05;;;;;;;9.90;5.30;;;14.30;99.90;;;;;;5100399;28;20465;-60
2023/07/04 03:47:33;;;;;;;14.07;5.60;;;14.30;99.90;;;;;;5100641;28;20499;-60
2023/07/04 03:50:00;;;;;;;13.70;5.47;;;14.30;1.00;;;;;;5099954;28;20442;-60
2023/07/04 03:52:27;;;;;;;11.60;6.30;;;14.20;1.00;;;;;;5099983;28;20459;-61
2023/07/04 03:54:54;;;;;;;15.53;5.63;;;14.20;1.00;;;;;;5100428;28;20468;-60
2023/07/04 03:57:21;;;;;;;15.53;5.50;;;14.30;1.00;;;;;;5100327;28;20488;-60
2023/07/04 03:59:49;;;;;;;11.50;4.67;;;14.30;1.00;;;;;;5100415;28;20465;-60
2023/07/04 04:02:17;;;;;;;15.00;6.10;;;14.30;1.00;;;;;;5100556;28;20657;-62
2023/07/04 04:04:44;;;;;;;13.43;5.23;;;14.30;1.00;;;;;;5100141;28;20466;-59
2023/07/04 04:07:12;;;;;;;12.53;6.07;;;14.40;1.00;;;;;;5099577;28;20453;-60
2023/07/04 04:09:40;;;;;;;21.17;6.70;;;14.40;1.00;;;;;;5100476;28;20488;-60
2023/07/04 04:12:08;;;;;;;15.30;5.87;;;14.30;1.00;;;;;;5099567;28;20439;-58
2023/07/04 04:14:36;;;;;;;15.70;5.33;;;14.30;1.00;;;;;;5099882;28;20749;-60
2023/07/04 04:17:05;;;;;;;15.57;6.07;;;14.30;1.00;;;;;;5099858;28;20933;-60
2023/07/04 04:19:34;;;;;;;10.63;5.30;;;14.30;16.80;;;;;;5100033;28;20466;-59
2023/07/04 04:22:01;;;;;;;8.70;4.50;;;14.30;1.00;;;;;;5099349;28;20554;-60
2023/07/04 04:24:28;;;;;;;20.37;6.33;;;14.30;1.00;;;;;;5099627;28;20467;-60
2023/07/04 04:27:00;;;;;;;15.40;5.17;;;14.30;1.00;;;;;;5099843;28;20432;-60
2023/07/04 04:29:28;;;;;;;15.20;6.00;;;14.20;1.00;;;;;;5099246;28;20468;-59
2023/07/04 04:31:55;;;;;;;12.10;5.33;;;14.30;1.00;;;;;;5100051;28;20461;-60
2023/07/04 04:34:23;;;;;;;12.27;5.37;;;14.30;99.90;;;;;;5099507;28;20790;-60
2023/07/04 04:36:51;;;;;;;16.80;5.07;;;14.30;1.00;;;;;;5099391;28;20835;-59
2023/07/04 04:39:19;;;;;;;15.70;6.17;;;14.40;99.90;;;;;;5098534;28;20562;-59
2023/07/04 04:41:46;;;;;;;13.90;5.37;;;14.40;1.00;;;;;;5099392;28;21058;-59
2023/07/04 04:44:13;;;;;;;14.97;5.10;;;14.40;1.00;;;;;;5099455;28;20464;-62
2023/07/04 04:46:48;;;;;;;12.73;4.93;;;14.30;1.00;;;;;;5099293;28;20461;-60
2023/07/04 04:49:17;;;;;;;10.73;5.60;;;14.30;13.10;;;;;;5098230;28;20871;-60
2023/07/04 04:51:44;;;;;;;12.30;5.17;;;14.30;1.00;;;;;;5099286;28;20500;-60
2023/07/04 04:54:13;;;;;;;13.93;6.03;;;14.30;1.00;;;;;;5099026;28;20753;-59
2023/07/04 04:56:43;;;;;;;11.53;5.87;;;14.30;1.00;;;;;;5098528;28;20492;-60
2023/07/04 04:59:11;;;;;;;15.53;6.10;;;14.40;19.90;;;;;;5099056;28;20468;-60
2023/07/04 05:01:39;;;;;;;17.30;4.97;;;14.30;1.00;;;;;;5099334;28;20919;-60
2023/07/04 05:04:06;;;;;;;18.83;5.90;;;14.50;1.00;;;;;;5098556;28;20500;-59
2023/07/04 05:06:33;;;;;;;16.23;5.90;;;14.50;1.00;;;;;;5098802;28;20840;-59
2023/07/04 05:09:01;;;;;;;15.93;6.77;;;14.50;1.00;;;;;;5099048;28;20435;-60
2023/07/04 05:11:31;;;;;;;13.83;5.67;;;14.60;1.00;;;;;;5098928;28;20461;-60
2023/07/04 05:13:59;;;;;;;12.40;5.63;;;14.60;1.00;;;;;;5093282;28;20492;-61
2023/07/04 05:16:27;;;;;;;17.40;6.57;;;14.80;1.00;;;;;;5078273;28;20838;-61
2023/07/04 05:18:54;;;;;;;17.10;5.80;;;14.70;1.00;;;;;;5078673;28;20457;-60
2023/07/04 05:21:24;;;;;;;11.70;5.30;;;14.80;1.00;;;;;;5077635;28;20770;-59
2023/07/04 05:23:52;;;;;;;14.00;6.00;;;14.90;1.00;;;;;;5082033;28;20854;-61
2023/07/04 05:26:21;;;;;;;10.63;5.40;;;15.00;1.00;;;;;;5098583;28;20510;-60
2023/07/04 05:28:52;;;;;;;15.57;6.43;;;15.10;1.00;;;;;;5098702;28;20803;-61
2023/07/04 05:31:23;;;;;;;18.87;5.53;;;15.10;1.00;;;;;;5098760;28;20517;-60
2023/07/04 05:33:52;;;;;;;17.47;6.23;;;15.10;1.00;;;;;;5098836;28;20746;-60
2023/07/04 05:36:21;;;;;;;13.93;6.23;;;15.10;1.00;;;;;;5097938;28;20482;-61
2023/07/04 05:38:49;;;;;;;16.30;5.47;;;15.20;1.00;;;;;;5097860;28;20484;-61
2023/07/04 05:41:19;;;;;;;15.83;5.40;;;15.20;1.00;;;;;;5098511;28;20470;-61
2023/07/04 05:43:46;;;;;;;14.03;5.70;;;15.30;1.00;;;;;;5098335;28;20514;-60
2023/07/04 05:46:17;;;;;;;12.80;5.87;;;15.40;37.90;;;;;;5098029;28;20487;-61
2023/07/04 05:48:44;;;;;;;11.20;4.50;;;15.40;99.90;;;;;;5098144;28;20887;-60
2023/07/04 05:51:13;;;;;;;14.70;5.57;;;15.40;1.00;;;;;;5098475;28;20463;-61
2023/07/04 05:53:42;;;;;;;14.07;5.00;;;15.40;99.90;;;;;;5097825;28;20456;-60
2023/07/04 05:56:11;;;;;;;15.50;6.30;;;15.40;99.90;;;;;;5097995;28;20472;-60
2023/07/04 05:58:40;;;;;;;15.97;6.30;;;15.40;99.90;;;;;;5097911;28;20563;-61
2023/07/04 06:01:09;;;;;;;8.67;5.10;;;15.30;99.90;;;;;;5097843;28;20759;-60
2023/07/04 06:03:38;;;;;;;9.10;5.20;;;15.40;99.90;;;;;;5097967;28;20983;-61
2023/07/04 06:06:06;;;;;;;13.27;5.93;;;15.30;99.90;;;;;;5097502;28;20893;-62
2023/07/04 06:08:34;;;;;;;15.17;6.70;;;15.40;99.90;;;;;;5097725;28;20772;-61
2023/07/04 06:11:03;;;;;;;15.20;6.20;;;15.40;99.90;;;;;;5097992;28;20556;-61
2023/07/04 06:13:30;;;;;;;15.03;5.20;;;15.30;1.00;;;;;;5097732;28;20730;-60
2023/07/04 06:15:59;;;;;;;15.20;6.80;;;15.30;99.90;;;;;;5097619;28;20495;-60
2023/07/04 06:18:26;;;;;;;11.20;5.07;;;15.40;99.90;;;;;;5096796;28;20948;-60
2023/07/04 06:21:04;;;;;;;11.50;5.80;;;15.60;99.90;;;;;;5096670;28;20549;-61
2023/07/04 06:23:31;;;;;;;12.00;5.83;;;15.60;99.90;;;;;;5095291;28;20453;-61
2023/07/04 06:25:59;;;;;;;15.67;6.10;;;15.80;99.90;;;;;;5096155;28;20467;-61
2023/07/04 06:28:26;;;;;;;14.60;6.17;;;15.70;99.90;;;;;;5094197;28;20444;-59
2023/07/04 06:30:54;;;;;;;19.17;5.37;;;15.70;99.90;;;;;;5097305;28;20460;-60
2023/07/04 06:33:21;;;;;;;12.20;5.53;;;15.80;99.90;;;;;;5096887;28;20876;-59
2023/07/04 06:35:48;;;;;;;11.20;5.30;;;16.00;99.90;;;;;;5097143;28;20463;-60
2023/07/04 06:38:16;;;;;;;12.37;5.47;;;16.30;99.90;;;;;;5096080;28;20484;-59
2023/07/04 06:40:44;;;;;;;12.77;5.27;;;16.30;1.00;;;;;;5095441;28;20483;-61
2023/07/04 06:43:11;;;;;;;9.43;5.50;;;16.20;1.00;;;;;;5096386;28;20471;-60
2023/07/04 06:45:38;;;;;;;15.23;6.00;;;16.10;1.00;;;;;;5096235;28;20557;-60
2023/07/04 06:48:06;;;;;;;13.07;6.17;;;16.30;1.00;;;;;;5094705;28;20828;-60
2023/07/04 06:50:33;;;;;;;13.30;6.20;;;16.60;1.00;;;;;;5095325;28;20439;-59
2023/07/04 06:53:00;;;;;;;14.87;6.17;;;16.80;1.00;;;;;;5095230;28;20460;-61
2023/07/04 06:55:29;;;;;;;12.27;5.20;;;16.70;99.90;;;;;;5095255;28;20460;-60
2023/07/04 06:57:56;;;;;;;13.07;6.30;;;16.80;99.90;;;;;;5095050;28;20495;-62
2023/07/04 07:00:23;;;;;;;15.73;5.03;;;17.10;99.90;;;;;;5095387;28;20771;-62
2023/07/04 07:02:51;;;;;;;11.30;5.50;;;17.30;1.00;;;;;;5096085;28;20472;-62
2023/07/04 07:05:19;;;;;;;12.37;5.90;;;17.50;1.00;;;;;;5095663;28;20526;-62
2023/07/04 07:07:47;;;;;;;15.40;6.30;;;17.30;1.00;;;;;;5096460;28;20460;-60
2023/07/04 07:10:14;;;;;;;19.43;7.20;;;17.30;1.00;;;;;;5096997;28;20460;-59
2023/07/04 07:12:43;;;;;;;12.53;5.50;;;17.20;1.00;;;;;;5099268;28;20467;-60
2023/07/04 07:15:10;;;;;;;15.43;5.77;;;17.30;1.00;;;;;;5101175;28;20767;-59
2023/07/04 07:17:38;;;;;;;9.87;5.47;;;17.00;1.00;;;;;;5100701;28;20579;-61
2023/07/04 07:20:06;;;;;;;12.07;5.80;;;17.00;1.00;;;;;;5099472;28;20452;-61
2023/07/04 07:22:33;;;;;;;13.17;5.80;;;17.00;1.00;;;;;;5099277;28;20527;-61
2023/07/04 07:25:00;;;;;;;15.10;5.30;;;17.00;1.00;;;;;;5098874;28;20461;-62
2023/07/04 07:27:27;;;;;;;18.00;6.07;;;16.90;1.00;;;;;;5099540;28;20767;-60
2023/07/04 07:29:56;;;;;;;10.40;5.60;;;16.80;1.00;;;;;;5099569;28;20553;-61
2023/07/04 07:32:23;;;;;;;16.13;6.43;;;17.00;1.00;;;;;;5099235;28;20467;-61
2023/07/04 07:34:50;;;;;;;14.33;5.73;;;17.50;1.00;;;;;;5100788;28;20452;-60
2023/07/04 07:37:17;;;;;;;13.43;5.13;;;17.70;5.60;;;;;;5099970;28;20983;-59
2023/07/04 07:39:45;;;;;;;12.83;5.43;;;17.80;1.00;;;;;;5100441;28;20488;-60
2023/07/04 07:42:12;;;;;;;11.43;5.60;;;17.80;1.00;;;;;;5099450;28;20464;-62
2023/07/04 07:44:39;;;;;;;15.17;5.20;;;17.80;1.00;;;;;;5099971;28;20746;-59
2023/07/04 07:47:10;;;;;;;14.03;5.50;;;17.90;1.00;;;;;;5100475;28;20546;-60
2023/07/04 07:49:37;;;;;;;10.53;4.00;;;18.00;1.00;;;;;;5100507;28;20461;-60
2023/07/04 07:52:05;;;;;;;9.10;4.30;;;18.20;1.00;;;;;;5099769;28;20739;-61
2023/07/04 07:54:32;;;;;;;9.30;4.20;;;18.30;1.00;;;;;;5098482;28;20855;-59
2023/07/04 07:56:59;;;;;;;10.13;4.50;;;18.40;1.00;;;;;;5099614;28;20460;-61
2023/07/04 07:59:26;;;;;;;8.87;4.77;;;18.40;1.00;;;;;;5098920;28;20483;-59
2023/07/04 08:01:55;;;;;;;11.13;3.90;;;18.50;1.00;;;;;;5100362;28;20554;-59
2023/07/04 08:04:25;;;;;;;10.87;4.23;;;18.20;99.90;;;;;;5100019;28;20511;-60
2023/07/04 08:06:52;;;;;;;9.37;4.80;;;17.90;99.90;;;;;;5099944;28;20460;-61
2023/07/04 08:09:20;;;;;;;8.13;5.17;;;18.40;99.90;;;;;;5099294;28;20456;-62
2023/07/04 08:11:50;;;;;;;11.43;4.67;;;19.00;1.00;;;;;;5096969;28;20473;-61
2023/07/04 08:14:19;;;;;;;11.20;4.83;;;19.30;1.00;;;;;;5098600;28;20499;-61
2023/07/04 08:16:47;;;;;;;7.23;4.73;;;19.00;1.00;;;;;;5097520;28;20480;-61
2023/07/04 08:19:16;;;;;;;8.77;4.27;;;18.60;1.00;;;;;;5097644;28;20488;-61
2023/07/04 08:21:45;;;;;;;13.33;4.73;;;18.70;1.00;;;;;;5099695;28;20582;-61
2023/07/04 08:24:14;;;;;;;10.53;4.30;;;19.30;1.00;;;;;;5086454;28;20456;-61
2023/07/04 08:26:44;;;;;;;12.10;4.87;;;19.70;1.00;;;;;;5079397;28;20465;-61
2023/07/04 08:29:11;;;;;;;10.77;5.40;;;20.30;1.00;;;;;;5081960;28;20551;-62
2023/07/04 08:31:39;;;;;;;10.23;4.60;;;20.00;1.00;;;;;;5098214;28;20454;-60
2023/07/04 08:34:06;;;;;;;10.33;3.87;;;19.90;1.00;;;;;;5097368;28;20462;-60
2023/07/04 08:36:34;;;;;;;11.10;4.80;;;19.50;1.00;;;;;;5096808;28;20465;-61
2023/07/04 08:39:03;;;;;;;7.00;4.33;;;19.50;1.00;;;;;;5097507;28;20553;-66
2023/07/04 08:41:42;;;;;;;8.80;4.17;;;19.70;1.00;;;;;;5097182;28;20464;-62
2023/07/04 08:44:14;;;;;;;11.00;5.43;;;20.00;94.60;;;;;;5077192;28;20904;-61
2023/07/04 08:46:45;;;;;;;12.17;4.80;;;19.70;1.00;;;;;;5084900;28;20763;-60
2023/07/04 08:49:28;;;;;;;10.53;5.20;;;19.60;1.00;;;;;;5097191;28;20460;-61
2023/07/04 08:51:59;;;;;;;7.33;4.40;;;20.00;99.90;;;;;;5096582;28;20456;-63
2023/07/04 08:54:28;;;;;;;10.67;4.13;;;20.70;99.90;;;;;;5096128;28;20501;-63
2023/07/04 08:56:59;;;;;;;11.13;4.03;;;20.80;99.90;;;;;;5096502;28;20469;-63
2023/07/04 08:59:38;;;;;;;14.63;4.53;;;20.80;99.90;;;;;;5096849;28;20492;-62
2023/07/04 09:02:29;;;;;;;6.90;4.23;;;21.20;99.90;;;;;;5096971;28;20521;-63
2023/07/04 09:05:04;;;;;;;6.37;4.27;;;21.20;99.90;;;;;;5097667;28;20877;-60
2023/07/04 09:07:39;;;;;;;9.13;4.37;;;20.90;99.90;;;;;;5098575;28;20456;-62
2023/07/04 09:10:20;;;;;;;7.20;4.20;;;20.70;99.90;;;;;;5098467;28;20464;-61
2023/07/04 09:12:49;;;;;;;10.73;5.07;;;20.40;41.00;;;;;;5098677;28;20470;-62
2023/07/04 09:15:25;;;;;;;10.77;4.07;;;21.00;1.00;;;;;;5098569;28;20486;-62
2023/07/04 09:18:02;;;;;;;7.53;4.40;;;21.60;1.00;;;;;;5098720;28;20488;-62
2023/07/04 09:20:32;;;;;;;8.60;3.80;;;22.20;12.70;;;;;;5098600;28;20802;-62
2023/07/04 09:22:59;;;;;;;7.93;4.60;;;22.30;1.00;;;;;;5098470;28;20467;-61
2023/07/04 09:25:28;;;;;;;5.87;4.90;;;22.20;2.00;;;;;;5099015;28;20465;-62
2023/07/04 09:27:55;;;;;;;9.40;4.60;;;21.70;40.60;;;;;;5098305;28;20897;-63
2023/07/04 09:30:22;;;;;;;6.03;4.47;;;21.90;92.70;;;;;;5096930;28;20898;-63
2023/07/04 09:32:49;;;;;;;11.70;5.10;;;22.50;99.90;;;;;;5097750;28;20462;-63
2023/07/04 09:35:20;;;;;;;8.10;4.60;;;22.20;99.90;;;;;;5097994;28;20555;-62
2023/07/04 09:37:58;;;;;;;6.33;4.17;;;21.90;1.00;;;;;;5098428;28;20495;-62
2023/07/04 09:40:45;;;;;;;7.40;4.30;;;21.20;99.90;;;;;;5097461;28;20484;-63
2023/07/04 09:43:25;;;;;;;9.13;4.20;;;21.30;1.00;;;;;;5098108;28;20465;-61
2023/07/04 09:45:52;;;;;;;11.50;4.80;;;21.70;1.00;;;;;;5097847;28;20825;-63
2023/07/04 09:48:25;;;;;;;6.20;4.03;;;22.10;1.00;;;;;;5097404;28;20542;-65
2023/07/04 09:50:52;;;;;;;6.80;4.57;;;22.40;99.90;;;;;;5098301;28;20468;-63
2023/07/04 09:53:20;;;;;;;6.50;4.20;;;22.40;1.00;;;;;;5098079;28;20460;-61
2023/07/04 09:56:00;;;;;;;10.70;4.30;;;22.90;99.90;;;;;;5098434;28;20461;-61
2023/07/04 09:58:29;;;;;;;9.67;4.90;;;23.10;99.90;;;;;;5097323;28;20579;-63
2023/07/04 10:01:08;;;;;;;8.63;5.20;;;23.20;1.00;;;;;;5098054;28;20517;-60
2023/07/04 10:03:36;;;;;;;7.47;4.07;;;23.20;99.90;;;;;;5098333;28;20745;-64
2023/07/04 10:06:04;;;;;;;7.70;3.80;;;23.10;1.00;;;;;;5098016;28;20765;-64
2023/07/04 10:08:33;;;;;;;5.70;3.50;;;23.20;99.90;;;;;;5097537;28;20514;-63
2023/07/04 10:11:02;;;;;;;9.03;5.10;;;23.60;1.00;;;;;;5097635;28;20464;-64
2023/07/04 10:13:36;;;;;;;6.87;4.47;;;23.40;1.00;;;;;;5098110;28;20912;-63
2023/07/04 10:16:20;;;;;;;12.97;4.80;;;23.90;99.90;;;;;;5097547;28;20517;-63
2023/07/04 10:18:47;;;;;;;7.47;4.00;;;23.80;99.90;;;;;;5097819;28;20545;-64
2023/07/04 10:21:15;;;;;;;9.33;4.03;;;23.90;99.90;;;;;;5097327;28;20780;-63
2023/07/04 10:23:42;;;;;;;8.23;4.47;;;24.20;99.90;;;;;;5097923;28;20461;-65
2023/07/04 10:26:12;;;;;;;7.30;4.50;;;24.20;1.00;;;;;;5096242;28;20468;-62
2023/07/04 10:28:41;;;;;;;5.80;3.93;;;24.20;1.00;;;;;;5097489;28;20460;-64
2023/07/04 10:31:12;;;;;;;6.57;4.50;;;23.90;91.20;;;;;;5096343;28;20554;-65
2023/07/04 10:33:44;;;;;;;6.50;3.43;;;23.90;1.00;;;;;;5097464;28;20822;-64
2023/07/04 10:36:16;;;;;;;9.77;4.07;;;24.00;99.90;;;;;;5096209;28;20514;-61
2023/07/04 10:38:46;;;;;;;9.20;4.33;;;24.10;99.90;;;;;;5096358;28;20557;-65
2023/07/04 10:41:22;;;;;;;6.80;3.57;;;24.30;99.90;;;;;;5097651;28;20526;-64
2023/07/04 10:43:53;;;;;;;5.73;3.50;;;24.20;1.00;;;;;;5097805;28;20471;-64
2023/07/04 10:46:26;;;;;;;5.77;4.00;;;23.90;99.90;;;;;;5095063;28;20467;-61
2023/07/04 10:49:00;;;;;;;7.40;4.00;;;24.40;1.00;;;;;;5097250;28;20746;-66
2023/07/04 10:51:32;;;;;;;5.93;4.37;;;24.50;1.00;;;;;;5096861;28;20471;-63
2023/07/04 10:54:00;;;;;;;6.23;4.33;;;23.90;99.90;;;;;;5096203;28;20517;-65
2023/07/04 10:56:33;;;;;;;8.03;3.97;;;24.10;99.90;;;;;;5076987;28;20463;-64
2023/07/04 10:59:05;;;;;;;9.30;4.07;;;24.50;1.00;;;;;;5088861;28;20484;-65
2023/07/04 11:01:36;;;;;;;4.23;3.40;;;24.60;1.00;;;;;;5096603;28;20464;-65
2023/07/04 11:04:10;;;;;;;6.40;3.70;;;24.20;1.00;;;;;;5095196;28;20472;-60
2023/07/04 11:06:42;;;;;;;4.90;3.90;;;23.80;1.00;;;;;;5096204;28;20471;-62
2023/07/04 11:09:14;;;;;;;8.70;4.33;;;23.70;1.00;;;;;;5096406;28;20487;-62
2023/07/04 11:11:47;;;;;;;4.97;3.63;;;24.20;1.00;;;;;;5097329;28;20469;-61
2023/07/04 11:14:18;;;;;;;7.70;4.70;;;24.00;99.90;;;;;;5096331;28;20464;-62
2023/07/04 11:16:46;;;;;;;8.80;3.90;;;24.00;1.00;;;;;;5096675;28;20542;-61
2023/07/04 11:19:19;;;;;;;7.07;4.27;;;24.40;1.00;;;;;;5097328;28;20511;-62
2023/07/04 11:22:14;;;;;;;6.33;4.27;;;24.40;1.00;;;;;;5096750;28;20908;-65
2023/07/04 11:24:44;;;;;;;6.93;4.10;;;25.00;1.00;;;;;;5096906;28;20461;-60
2023/07/04 11:27:15;;;;;;;7.57;4.30;;;24.80;99.90;;;;;;5096999;28;20911;-62
2023/07/04 11:29:52;;;;;;;7.87;5.13;;;24.20;1.00;;;;;;5097152;28;20820;-66
2023/07/04 11:32:25;;;;;;;7.70;4.40;;;24.50;1.00;;;;;;5096832;28;20467;-62
2023/07/04 11:34:55;;;;;;;7.27;4.43;;;24.30;1.00;;;;;;5096812;28;20463;-63
2023/07/04 11:37:31;;;;;;;8.43;4.73;;;24.40;1.00;;;;;;5096649;28;20460;-60
2023/07/04 11:40:03;;;;;;;8.13;4.90;;;24.10;1.00;;;;;;5096361;28;20507;-62
2023/07/04 11:42:41;;;;;;;6.80;4.97;;;23.70;1.00;;;;;;5096635;28;20461;-61
2023/07/04 11:45:14;;;;;;;7.63;5.17;;;23.70;99.90;;;;;;5096767;28;20470;-60
2023/07/04 11:47:53;;;;;;;6.07;4.53;;;23.70;1.00;;;;;;5095894;28;20461;-62
2023/07/04 11:50:29;;;;;;;6.37;5.13;;;23.80;1.00;;;;;;5096190;28;20460;-62
2023/07/04 11:52:58;;;;;;;9.03;5.50;;;23.40;1.00;;;;;;5096739;28;20468;-63
2023/07/04 11:55:30;;;;;;;6.60;5.27;;;22.90;1.00;;;;;;5096856;28;20463;-63
2023/07/04 11:58:18;;;;;;;6.70;5.03;;;23.00;1.00;;;;;;5097133;28;20460;-61
2023/07/04 12:01:04;;;;;;;12.07;5.70;;;23.10;1.00;;;;;;5100277;28;20768;-64
2023/07/04 12:04:00;;;;;;;10.67;5.43;;;23.60;1.00;;;;;;5100220;28;21055;-61
2023/07/04 12:07:00;;;;;;;12.10;5.70;;;24.10;99.90;;;;;;5093334;28;20492;-62
2023/07/04 12:09:32;;;;;;;7.40;5.30;;;24.30;94.00;;;;;;5099773;28;20479;-61
2023/07/04 12:12:01;;;;;;;10.30;5.97;;;24.50;1.00;;;;;;5098727;28;20810;-62
2023/07/04 12:14:32;;;;;;;8.77;5.53;;;24.50;1.00;;;;;;5099949;28;20968;-63
2023/07/04 12:17:00;;;;;;;6.70;5.73;;;24.60;1.00;;;;;;5100212;28;20456;-61
2023/07/04 12:19:27;;;;;;;6.70;4.80;;;25.00;99.90;;;;;;5100133;28;20545;-63
2023/07/04 12:21:56;;;;;;;6.10;5.50;;;24.80;1.00;;;;;;5099865;28;20574;-63
2023/07/04 12:24:26;;;;;;;8.53;5.87;;;25.10;99.90;;;;;;5099110;28;20500;-63
2023/07/04 12:26:57;;;;;;;7.93;5.73;;;25.40;45.90;;;;;;5098318;28;20467;-62
2023/07/04 12:29:25;;;;;;;8.20;5.73;;;25.50;1.00;;;;;;5098158;28;20730;-60
2023/07/04 12:32:09;;;;;;;7.07;5.70;;;25.10;99.90;;;;;;5097443;28;20545;-61
2023/07/04 12:34:37;;;;;;;11.03;6.10;;;25.30;99.90;;;;;;5098687;28;20778;-63
2023/07/04 12:37:05;;;;;;;7.33;5.90;;;25.50;99.90;;;;;;5099092;28;20482;-61
2023/07/04 12:39:42;;;;;;;7.27;5.80;;;25.30;99.90;;;;;;5098584;28;20553;-57
2023/07/04 12:42:14;;;;;;;7.10;6.10;;;25.70;1.00;;;;;;5098199;28;20464;-60
2023/07/04 12:44:41;;;;;;;8.23;6.37;;;25.60;1.00;;;;;;5096108;28;20455;-63
2023/07/04 12:47:25;;;;;;;8.43;6.50;;;25.10;1.00;;;;;;5076205;28;20539;-61
2023/07/04 12:49:54;;;;;;;7.80;6.97;;;25.20;1.00;;;;;;5077325;28;20877;-62
2023/07/04 12:52:28;;;;;;;7.83;6.80;;;25.20;1.00;;;;;;5076915;28;20912;-63
2023/07/04 12:54:56;;;;;;;9.43;6.90;;;25.30;99.90;;;;;;5077096;28;20462;-61
2023/07/04 12:57:27;;;;;;;9.03;7.13;;;25.50;1.00;;;;;;5079460;28;20465;-62
2023/07/04 13:00:10;;;;;;;11.40;6.80;;;25.50;99.90;;;;;;5098368;28;20580;-61